createdAt,value
2024-02-02T00:01:58.681Z,1.88
2024-02-02T00:05:02.162Z,1.70
2024-02-02T00:08:05.762Z,1.95
2024-02-02T00:11:09.331Z,2.08
2024-02-02T00:14:12.255Z,1.70
2024-02-02T00:17:15.338Z,1.88
2024-02-02T00:20:19.155Z,1.95
2024-02-02T00:23:21.952Z,1.67
2024-02-02T00:26:24.354Z,1.73
2024-02-02T00:29:27.518Z,1.90
2024-02-02T00:32:31.057Z,1.85
2024-02-02T00:35:34.298Z,1.75
2024-02-02T00:38:37.334Z,1.83
2024-02-02T00:41:39.928Z,1.60
2024-02-02T00:44:43.151Z,2.10
2024-02-02T00:47:46.342Z,2.00
2024-02-02T00:50:50.159Z,1.80
2024-02-02T00:53:54.044Z,2.30
2024-02-02T00:56:57.234Z,2.10
2024-02-02T01:00:00.259Z,2.13
2024-02-02T01:03:03.038Z,1.77
2024-02-02T01:06:06.249Z,2.00
2024-02-02T01:09:09.207Z,1.92
2024-02-02T01:12:12.424Z,1.95
2024-02-02T01:15:15.532Z,1.90
2024-02-02T01:18:18.476Z,1.95
2024-02-02T01:21:21.423Z,1.83
2024-02-02T01:24:25.742Z,1.48
2024-02-02T01:27:29.685Z,1.88
2024-02-02T01:30:33.334Z,2.40
2024-02-02T01:33:36.952Z,1.83
2024-02-02T01:36:40.614Z,2.30
2024-02-02T01:39:43.247Z,1.92
2024-02-02T01:42:46.205Z,1.90
2024-02-02T01:45:48.318Z,2.03
2024-02-02T01:48:51.329Z,1.83
2024-02-02T01:51:53.747Z,2.00
2024-02-02T01:54:56.049Z,2.13
2024-02-02T01:57:58.926Z,1.77
2024-02-02T02:01:01.633Z,1.55
2024-02-02T02:04:04.263Z,1.98
2024-02-02T02:07:07.540Z,1.75
2024-02-02T02:10:11.178Z,1.88
2024-02-02T02:13:13.766Z,1.67
2024-02-02T02:16:16.684Z,1.77
2024-02-02T02:19:19.331Z,2.00
2024-02-02T02:22:21.725Z,1.90
2024-02-02T02:25:24.587Z,2.00
2024-02-02T02:28:27.864Z,1.88
2024-02-02T02:31:31.645Z,1.83
2024-02-02T02:34:35.145Z,1.85
2024-02-02T02:37:39.253Z,1.80
2024-02-02T02:40:43.257Z,2.08
2024-02-02T02:43:46.297Z,1.98
2024-02-02T02:46:49.885Z,2.00
2024-02-02T02:49:52.055Z,1.95
2024-02-02T02:52:54.925Z,2.17
2024-02-02T02:55:57.732Z,1.83
2024-02-02T02:59:00.406Z,2.08
2024-02-02T03:02:03.124Z,2.00
2024-02-02T03:05:06.386Z,2.10
2024-02-02T03:08:08.409Z,2.08
2024-02-02T03:11:11.482Z,2.00
2024-02-02T03:14:15.020Z,1.88
2024-02-02T03:17:18.688Z,2.13
2024-02-02T03:20:21.586Z,2.15
2024-02-02T03:23:24.850Z,2.05
2024-02-02T03:26:28.244Z,1.73
2024-02-02T03:29:31.226Z,2.00
2024-02-02T03:32:34.796Z,1.90
2024-02-02T03:35:37.815Z,2.20
2024-02-02T03:38:41.069Z,2.10
2024-02-02T03:41:43.594Z,2.20
2024-02-02T03:44:46.450Z,1.73
2024-02-02T03:47:49.201Z,1.80
2024-02-02T03:50:52.269Z,1.80
2024-02-02T03:53:54.946Z,1.80
2024-02-02T03:56:57.881Z,1.55
2024-02-02T04:00:01.077Z,2.20
2024-02-02T04:03:03.532Z,1.70
2024-02-02T04:06:06.004Z,1.95
2024-02-02T04:09:08.387Z,1.80
2024-02-02T04:12:11.061Z,1.70
2024-02-02T04:15:13.593Z,1.77
2024-02-02T04:18:16.625Z,1.92
2024-02-02T04:21:20.306Z,1.65
2024-02-02T04:24:23.078Z,1.60
2024-02-02T04:27:26.718Z,1.80
2024-02-02T04:30:29.608Z,1.90
2024-02-02T04:33:32.461Z,1.90
2024-02-02T04:36:35.406Z,1.90
2024-02-02T04:39:38.519Z,2.25
2024-02-02T04:42:41.778Z,2.17
2024-02-02T04:45:44.662Z,1.92
2024-02-02T04:48:48.222Z,2.00
2024-02-02T04:51:51.542Z,1.95
2024-02-02T04:54:55.355Z,2.00
2024-02-02T04:57:58.236Z,2.05
2024-02-02T05:01:01.106Z,2.03
2024-02-02T05:04:04.828Z,1.80
2024-02-02T05:07:08.801Z,2.00
2024-02-02T05:10:11.362Z,1.77
2024-02-02T05:13:14.190Z,1.90
2024-02-02T05:16:17.308Z,2.13
2024-02-02T05:19:20.570Z,1.90
2024-02-02T05:22:23.158Z,1.90
2024-02-02T05:25:26.058Z,1.80
2024-02-02T05:28:30.094Z,2.00
2024-02-02T05:31:32.811Z,1.83
2024-02-02T05:34:36.298Z,1.90
2024-02-02T05:37:40.053Z,1.77
2024-02-02T05:40:42.821Z,1.50
2024-02-02T05:43:45.522Z,1.75
2024-02-02T05:46:48.546Z,1.63
2024-02-02T05:49:51.721Z,1.73
2024-02-02T05:52:55.865Z,1.13
2024-02-02T05:55:59.098Z,1.55
2024-02-02T05:59:02.678Z,1.63
2024-02-02T06:02:06.313Z,1.75
2024-02-02T06:05:09.013Z,1.73
2024-02-02T06:08:12.037Z,2.00
2024-02-02T06:11:15.261Z,1.60
2024-02-02T06:14:19.069Z,1.50
2024-02-02T06:17:22.658Z,1.88
2024-02-02T06:20:26.437Z,1.60
2024-02-02T06:23:29.609Z,1.70
2024-02-02T06:26:32.792Z,1.70
2024-02-02T06:29:36.041Z,2.00
2024-02-02T06:32:39.534Z,1.88
2024-02-02T06:35:42.971Z,1.70
2024-02-02T06:38:47.049Z,1.60
2024-02-02T06:41:50.825Z,2.00
2024-02-02T06:44:53.659Z,1.92
2024-02-02T06:47:56.297Z,1.75
2024-02-02T06:51:00.128Z,2.13
2024-02-02T06:54:03.266Z,2.10
2024-02-02T06:57:06.017Z,1.77
2024-02-02T07:00:09.098Z,1.77
2024-02-02T07:03:12.366Z,2.50
2024-02-02T07:06:15.745Z,2.15
2024-02-02T07:09:18.666Z,2.28
2024-02-02T07:12:21.197Z,2.45
2024-02-02T07:15:24.372Z,2.13
2024-02-02T07:18:27.877Z,2.20
2024-02-02T07:21:31.869Z,2.03
2024-02-02T07:24:34.576Z,2.38
2024-02-02T07:27:37.070Z,1.95
2024-02-02T07:30:40.008Z,2.22
2024-02-02T07:33:43.208Z,1.70
2024-02-02T07:36:46.965Z,1.73
2024-02-02T07:39:49.816Z,1.60
2024-02-02T07:42:53.382Z,1.83
2024-02-02T07:45:56.717Z,1.65
2024-02-02T07:49:00.364Z,1.95
2024-02-02T07:52:03.482Z,1.77
2024-02-02T07:55:06.957Z,2.15
2024-02-02T07:58:10.018Z,2.05
2024-02-02T08:01:13.229Z,1.70
2024-02-02T08:04:16.500Z,2.00
2024-02-02T08:07:19.129Z,2.10
2024-02-02T08:10:22.302Z,1.98
2024-02-02T08:13:24.715Z,2.47
2024-02-02T08:16:28.924Z,2.20
2024-02-02T08:19:33.734Z,2.28
2024-02-02T08:22:38.103Z,2.13
2024-02-02T08:25:41.344Z,2.20
2024-02-02T08:28:49.157Z,2.25
2024-02-02T08:31:57.761Z,1.92
2024-02-02T08:35:01.838Z,2.17
2024-02-02T08:38:05.438Z,2.15
2024-02-02T08:41:08.108Z,2.20
2024-02-02T08:44:10.694Z,2.30
2024-02-02T08:47:13.544Z,2.10
2024-02-02T08:50:16.662Z,2.00
2024-02-02T08:53:19.994Z,2.00
2024-02-02T08:56:23.348Z,1.75
2024-02-02T08:59:26.383Z,1.95
2024-02-02T09:02:29.613Z,2.08
2024-02-02T09:05:33.121Z,2.10
2024-02-02T09:08:35.282Z,2.35
2024-02-02T09:11:38.631Z,1.85
2024-02-02T09:14:41.738Z,2.10
2024-02-02T09:17:44.428Z,2.42
2024-02-02T09:20:47.675Z,1.83
2024-02-02T09:23:51.439Z,2.00
2024-02-02T09:26:54.162Z,2.10
2024-02-02T09:29:57.531Z,2.28
2024-02-02T09:33:01.209Z,1.95
2024-02-02T09:36:04.022Z,1.90
2024-02-02T09:39:07.353Z,2.17
2024-02-02T09:42:10.555Z,2.30
2024-02-02T09:45:13.686Z,2.00
2024-02-02T09:48:17.492Z,2.63
2024-02-02T09:51:20.570Z,2.10
2024-02-02T09:54:23.578Z,2.05
2024-02-02T09:57:25.904Z,2.13
2024-02-02T10:00:28.077Z,2.03
2024-02-02T10:03:30.925Z,2.35
2024-02-02T10:06:34.681Z,2.10
2024-02-02T10:09:36.957Z,2.15
2024-02-02T10:12:40.068Z,2.30
2024-02-02T10:15:42.651Z,2.10
2024-02-02T10:18:45.250Z,1.88
2024-02-02T10:21:48.444Z,1.63
2024-02-02T10:24:51.943Z,1.98
2024-02-02T10:27:55.625Z,1.83
2024-02-02T10:30:58.085Z,2.20
2024-02-02T10:34:00.910Z,1.88
2024-02-02T10:37:03.612Z,2.30
2024-02-02T10:40:07.140Z,1.63
2024-02-02T10:43:11.088Z,2.22
2024-02-02T10:46:13.995Z,2.38
2024-02-02T10:49:17.824Z,1.90
2024-02-02T10:52:20.436Z,1.73
2024-02-02T10:55:23.355Z,2.38
2024-02-02T10:58:26.057Z,2.20
2024-02-02T11:01:29.284Z,2.10
2024-02-02T11:04:32.523Z,2.30
2024-02-02T11:07:36.152Z,2.00
2024-02-02T11:10:39.479Z,2.42
2024-02-02T11:13:41.804Z,2.25
2024-02-02T11:16:44.560Z,2.20
2024-02-02T11:19:48.073Z,2.40
2024-02-02T11:22:51.988Z,2.17
2024-02-02T11:25:55.745Z,2.42
2024-02-02T11:28:58.957Z,2.30
2024-02-02T11:32:02.500Z,2.38
2024-02-02T11:35:06.018Z,2.80
2024-02-02T11:38:09.732Z,2.45
2024-02-02T11:41:12.924Z,2.30
2024-02-02T11:44:16.729Z,2.42
2024-02-02T11:47:19.641Z,2.25
2024-02-02T11:50:23.426Z,2.28
2024-02-02T11:53:26.175Z,2.58
2024-02-02T11:56:29.319Z,2.90
2024-02-02T11:59:33.038Z,2.47
2024-02-02T12:02:35.489Z,2.65
2024-02-02T12:05:39.053Z,2.75
2024-02-02T12:08:42.121Z,2.42
2024-02-02T12:11:45.173Z,2.50
2024-02-02T12:14:48.413Z,2.58
2024-02-02T12:17:51.629Z,2.50
2024-02-02T12:20:55.088Z,2.45
2024-02-02T12:23:58.122Z,2.63
2024-02-02T12:27:01.847Z,3.17
2024-02-02T12:30:04.697Z,3.10
2024-02-02T12:33:07.376Z,2.83
2024-02-02T12:36:12.712Z,2.85
2024-02-02T12:39:15.884Z,2.78
2024-02-02T12:42:19.141Z,2.90
2024-02-02T12:45:22.799Z,2.97
2024-02-02T12:48:26.788Z,3.30
2024-02-02T12:51:30.367Z,2.85
2024-02-02T12:54:32.766Z,2.50
2024-02-02T12:57:35.893Z,2.90
2024-02-02T13:00:39.306Z,3.17
2024-02-02T13:03:44.804Z,2.92
2024-02-02T13:06:49.512Z,3.30
2024-02-02T13:09:52.513Z,2.95
2024-02-02T13:12:55.643Z,2.88
2024-02-02T13:15:58.542Z,2.40
2024-02-02T13:19:01.520Z,2.80
2024-02-02T13:22:04.967Z,2.92
2024-02-02T13:25:09.280Z,2.72
2024-02-02T13:28:12.984Z,2.97
2024-02-02T13:31:15.045Z,3.13
2024-02-02T13:34:17.582Z,2.83
2024-02-02T13:37:20.855Z,3.30
2024-02-02T13:40:24.409Z,2.42
2024-02-02T13:43:28.041Z,2.17
2024-02-02T13:46:30.931Z,2.40
2024-02-02T13:49:34.344Z,2.25
2024-02-02T13:52:37.646Z,2.38
2024-02-02T13:55:40.020Z,2.20
2024-02-02T13:58:42.936Z,1.90
2024-02-02T14:01:46.094Z,2.05
2024-02-02T14:04:48.582Z,2.03
2024-02-02T14:07:52.599Z,2.30
2024-02-02T14:10:56.216Z,2.10
2024-02-02T14:13:59.810Z,2.35
2024-02-02T14:17:02.372Z,2.08
2024-02-02T14:20:05.806Z,2.60
2024-02-02T14:23:08.955Z,2.10
2024-02-02T14:26:11.640Z,1.90
2024-02-02T14:29:15.291Z,2.20
2024-02-02T14:32:18.741Z,2.25
2024-02-02T14:35:22.052Z,2.00
2024-02-02T14:38:24.945Z,2.30
2024-02-02T14:41:27.241Z,1.88
2024-02-02T14:44:30.533Z,2.15
2024-02-02T14:47:34.328Z,2.00
2024-02-02T14:50:38.615Z,2.20
2024-02-02T14:53:42.028Z,2.00
2024-02-02T14:56:45.084Z,1.90
2024-02-02T14:59:48.279Z,2.17
2024-02-02T15:02:51.487Z,2.08
2024-02-02T15:05:54.592Z,2.03
2024-02-02T15:08:58.068Z,1.88
2024-02-02T15:12:05.154Z,2.00
2024-02-02T15:15:07.929Z,1.98
2024-02-02T15:18:10.916Z,2.10
2024-02-02T15:21:13.292Z,2.15
2024-02-02T15:24:16.519Z,2.33
2024-02-02T15:27:19.439Z,2.00
2024-02-02T15:30:23.087Z,1.98
2024-02-02T15:33:26.298Z,2.17
2024-02-02T15:36:29.489Z,2.30
2024-02-02T15:39:37.971Z,2.00
2024-02-02T15:42:41.702Z,1.88
2024-02-02T15:45:44.774Z,2.05
2024-02-02T15:48:48.703Z,2.15
2024-02-02T15:51:51.786Z,2.28
2024-02-02T15:54:55.159Z,2.35
2024-02-02T15:57:59.230Z,2.10
2024-02-02T16:01:02.091Z,2.25
2024-02-02T16:04:04.352Z,2.05
2024-02-02T16:07:07.358Z,2.30
2024-02-02T16:10:10.851Z,1.85
2024-02-02T16:13:14.333Z,2.17
2024-02-02T16:16:17.440Z,2.00
2024-02-02T16:19:20.259Z,2.30
2024-02-02T16:22:22.885Z,2.38
2024-02-02T16:25:25.529Z,2.40
2024-02-02T16:28:28.807Z,2.30
2024-02-02T16:31:31.415Z,2.28
2024-02-02T16:34:35.736Z,2.25
2024-02-02T16:37:39.118Z,2.28
2024-02-02T16:40:43.199Z,2.30
2024-02-02T16:43:47.242Z,2.30
2024-02-02T16:46:50.209Z,2.33
2024-02-02T16:49:54.095Z,2.22
2024-02-02T16:52:56.687Z,2.03
2024-02-02T16:55:59.981Z,2.40
2024-02-02T16:59:03.183Z,2.30
2024-02-02T17:02:06.603Z,2.60
2024-02-02T17:05:09.753Z,2.50
2024-02-02T17:08:11.926Z,2.45
2024-02-02T17:11:14.994Z,2.25
2024-02-02T17:14:18.897Z,2.03
2024-02-02T17:17:22.397Z,1.90
2024-02-02T17:20:26.351Z,1.90
2024-02-02T17:23:29.771Z,1.80
2024-02-02T17:26:35.657Z,2.15
2024-02-02T17:29:40.818Z,2.17
2024-02-02T17:32:43.320Z,2.05
2024-02-02T17:35:47.509Z,2.00
2024-02-02T17:38:51.105Z,2.15
2024-02-02T17:41:54.207Z,1.90
2024-02-02T17:44:57.108Z,2.03
2024-02-02T17:47:59.656Z,2.00
2024-02-02T17:51:02.768Z,2.15
2024-02-02T17:54:05.783Z,2.42
2024-02-02T17:57:09.306Z,2.58
2024-02-02T18:00:13.226Z,2.20
2024-02-02T18:03:17.421Z,2.40
2024-02-02T18:06:21.465Z,2.47
2024-02-02T18:09:25.443Z,2.70
2024-02-02T18:12:28.708Z,2.42
2024-02-02T18:15:32.326Z,2.35
2024-02-02T18:18:36.386Z,2.13
2024-02-02T18:21:39.677Z,2.50
2024-02-02T18:24:42.620Z,2.90
2024-02-02T18:27:46.004Z,2.45
2024-02-02T18:30:50.055Z,2.47
2024-02-02T18:33:53.348Z,2.65
2024-02-02T18:36:56.409Z,2.70
2024-02-02T18:39:59.366Z,2.67
2024-02-02T18:43:01.645Z,2.92
2024-02-02T18:46:04.983Z,2.72
2024-02-02T18:49:08.524Z,2.80
2024-02-02T18:52:11.867Z,3.15
2024-02-02T18:55:15.064Z,2.80
2024-02-02T18:58:20.334Z,2.60
2024-02-02T19:01:23.449Z,2.38
2024-02-02T19:04:26.873Z,2.67
2024-02-02T19:07:30.226Z,3.17
2024-02-02T19:10:33.376Z,2.80
2024-02-02T19:13:36.920Z,2.80
2024-02-02T19:16:40.875Z,2.75
2024-02-02T19:19:44.200Z,3.28
2024-02-02T19:22:47.217Z,3.22
2024-02-02T19:25:50.386Z,2.97
2024-02-02T19:28:54.407Z,2.70
2024-02-02T19:31:57.372Z,2.90
2024-02-02T19:35:01.020Z,3.00
2024-02-02T19:38:03.942Z,3.00
2024-02-02T19:41:09.583Z,3.22
2024-02-02T19:44:11.833Z,3.30
2024-02-02T19:47:14.745Z,3.08
2024-02-02T19:50:17.969Z,3.22
2024-02-02T19:53:22.064Z,3.50
2024-02-02T19:56:25.629Z,2.90
2024-02-02T19:59:29.736Z,3.17
2024-02-02T20:02:33.866Z,3.40
2024-02-02T20:05:37.749Z,3.42
2024-02-02T20:08:40.906Z,3.20
2024-02-02T20:11:43.860Z,3.67
2024-02-02T20:14:47.119Z,2.95
2024-02-02T20:17:50.342Z,3.35
2024-02-02T20:20:53.687Z,3.30
2024-02-02T20:23:57.677Z,3.40
2024-02-02T20:27:01.069Z,3.22
2024-02-02T20:30:04.326Z,2.60
2024-02-02T20:33:07.287Z,3.03
2024-02-02T20:36:11.535Z,2.95
2024-02-02T20:39:15.686Z,2.60
2024-02-02T20:42:19.802Z,2.78
2024-02-02T20:45:23.718Z,2.65
2024-02-02T20:48:26.392Z,2.90
2024-02-02T20:51:28.837Z,2.88
2024-02-02T20:54:32.180Z,2.70
2024-02-02T20:57:35.152Z,2.60
2024-02-02T21:00:38.242Z,2.78
2024-02-02T21:03:41.382Z,2.80
2024-02-02T21:06:43.965Z,3.05
2024-02-02T21:09:46.976Z,2.70
2024-02-02T21:12:50.097Z,3.13
2024-02-02T21:15:52.549Z,3.15
2024-02-02T21:18:55.807Z,2.83
2024-02-02T21:21:59.681Z,3.10
2024-02-02T21:25:03.707Z,3.28
2024-02-02T21:28:07.160Z,3.30
2024-02-02T21:31:10.354Z,3.00
2024-02-02T21:34:13.334Z,3.25
2024-02-02T21:37:16.849Z,3.50
2024-02-02T21:40:19.931Z,3.25
2024-02-02T21:43:22.888Z,3.28
2024-02-02T21:46:26.555Z,2.92
2024-02-02T21:49:30.189Z,2.97
2024-02-02T21:52:33.667Z,3.20
2024-02-02T21:55:36.473Z,2.97
2024-02-02T21:58:40.413Z,3.30
2024-02-02T22:01:43.070Z,2.75
2024-02-02T22:04:45.986Z,2.90
2024-02-02T22:07:48.985Z,3.03
2024-02-02T22:10:51.434Z,2.88
2024-02-02T22:13:55.099Z,2.80
2024-02-02T22:16:58.289Z,3.00
2024-02-02T22:20:02.266Z,2.83
2024-02-02T22:23:04.825Z,2.80
2024-02-02T22:26:07.187Z,2.33
2024-02-02T22:29:09.989Z,3.10
2024-02-02T22:32:13.562Z,2.70
2024-02-02T22:35:17.666Z,2.80
2024-02-02T22:38:21.031Z,3.47
2024-02-02T22:41:32.429Z,2.63
2024-02-02T22:44:37.211Z,2.70
2024-02-02T22:47:40.560Z,3.30
2024-02-02T22:50:44.795Z,3.05
2024-02-02T22:53:48.038Z,2.85
2024-02-02T22:56:51.134Z,2.95
2024-02-02T22:59:59.502Z,3.17
2024-02-02T23:03:05.614Z,3.47
2024-02-02T23:06:08.327Z,3.13
2024-02-02T23:09:11.550Z,3.03
2024-02-02T23:12:14.773Z,2.92
2024-02-02T23:15:18.271Z,3.00
2024-02-02T23:18:21.569Z,3.10
2024-02-02T23:21:24.762Z,3.20
2024-02-02T23:24:28.166Z,3.13
2024-02-02T23:27:30.850Z,3.20
2024-02-02T23:30:34.127Z,2.92
2024-02-02T23:33:37.378Z,3.20
2024-02-02T23:36:40.202Z,3.45
2024-02-02T23:39:43.640Z,3.28
2024-02-02T23:42:47.285Z,3.22
2024-02-02T23:45:51.087Z,2.92
2024-02-02T23:48:54.246Z,3.10
2024-02-02T23:51:57.374Z,3.35
2024-02-02T23:55:00.265Z,3.08
2024-02-02T23:58:03.214Z,3.40
